createdAt,value
2017-07-19T00:07:58.273Z,21.60
2017-07-19T00:10:25.205Z,21.60
2017-07-19T00:13:01.167Z,21.50
2017-07-19T00:15:27.496Z,21.40
2017-07-19T00:17:53.727Z,21.50
2017-07-19T00:20:19.976Z,21.40
2017-07-19T00:22:46.302Z,21.40
2017-07-19T00:25:12.542Z,21.20
2017-07-19T00:27:38.749Z,21.30
2017-07-19T00:30:05.012Z,21.30
2017-07-19T00:32:31.864Z,21.20
2017-07-19T00:34:58.302Z,21.30
2017-07-19T00:37:25.149Z,21.30
2017-07-19T00:39:51.804Z,21.20
2017-07-19T00:42:18.036Z,21.20
2017-07-19T00:44:46.712Z,21.20
2017-07-19T00:47:18.922Z,21.20
2017-07-19T00:49:45.217Z,21.10
2017-07-19T00:52:11.486Z,21.20
2017-07-19T00:54:38.230Z,21.30
2017-07-19T00:57:04.852Z,21.30
2017-07-19T00:59:31.134Z,21.20
2017-07-19T01:01:57.352Z,21.30
2017-07-19T01:04:23.756Z,21.40
2017-07-19T01:06:50.488Z,21.40
2017-07-19T01:09:16.861Z,21.20
2017-07-19T01:11:43.267Z,21.30
2017-07-19T01:14:09.527Z,21.10
2017-07-19T01:16:35.834Z,20.90
2017-07-19T01:19:02.713Z,20.80
2017-07-19T01:21:30.478Z,20.90
2017-07-19T01:23:56.727Z,21.10
2017-07-19T01:26:23.002Z,21.00
2017-07-19T01:28:49.878Z,20.90
2017-07-19T01:31:16.563Z,20.90
2017-07-19T01:33:42.813Z,20.90
2017-07-19T01:36:09.087Z,21.00
2017-07-19T01:38:35.263Z,20.90
2017-07-19T01:41:01.490Z,20.70
2017-07-19T01:43:28.435Z,20.60
2017-07-19T01:45:54.737Z,20.70
2017-07-19T01:48:21.096Z,20.80
2017-07-19T01:50:47.320Z,20.80
2017-07-19T01:53:13.586Z,20.80
2017-07-19T01:55:43.578Z,20.70
2017-07-19T01:58:18.553Z,20.50
2017-07-19T02:00:44.865Z,20.40
2017-07-19T02:03:11.197Z,20.50
2017-07-19T02:05:37.495Z,20.40
2017-07-19T02:08:04.119Z,20.40
2017-07-19T02:10:30.522Z,20.50
2017-07-19T02:12:57.436Z,20.70
2017-07-19T02:15:23.937Z,20.80
2017-07-19T02:17:50.280Z,20.90
2017-07-19T02:20:16.769Z,20.90
2017-07-19T02:22:43.669Z,20.90
2017-07-19T02:25:10.835Z,20.80
2017-07-19T02:27:42.406Z,20.80
2017-07-19T02:30:09.227Z,20.50
2017-07-19T02:32:35.882Z,20.50
2017-07-19T02:35:02.468Z,20.80
2017-07-19T02:37:29.450Z,20.80
2017-07-19T02:39:57.806Z,20.80
2017-07-19T02:42:29.191Z,20.80
2017-07-19T02:44:55.656Z,20.50
2017-07-19T02:47:22.219Z,20.40
2017-07-19T02:49:48.679Z,20.40
2017-07-19T02:52:15.268Z,20.60
2017-07-19T02:54:41.572Z,20.60
2017-07-19T02:57:07.878Z,20.30
2017-07-19T02:59:34.139Z,20.30
2017-07-19T03:02:00.907Z,20.40
2017-07-19T03:04:27.211Z,20.50
2017-07-19T03:06:53.627Z,20.40
2017-07-19T03:09:19.863Z,20.40
2017-07-19T03:11:46.079Z,20.30
2017-07-19T03:14:12.433Z,20.20
2017-07-19T03:16:38.691Z,20.20
2017-07-19T03:19:04.917Z,20.30
2017-07-19T03:21:31.690Z,20.10
2017-07-19T03:23:58.180Z,20.10
2017-07-19T03:26:24.584Z,20.00
2017-07-19T03:28:50.829Z,20.00
2017-07-19T03:31:17.579Z,20.00
2017-07-19T03:33:44.110Z,19.90
2017-07-19T03:36:10.827Z,20.10
2017-07-19T03:38:39.084Z,20.20
2017-07-19T03:41:05.757Z,20.30
2017-07-19T03:43:35.244Z,20.50
2017-07-19T03:46:02.204Z,20.60
2017-07-19T03:48:29.996Z,20.40
2017-07-19T03:50:56.787Z,20.30
2017-07-19T03:53:24.312Z,20.40
2017-07-19T03:55:54.124Z,20.30
2017-07-19T03:58:23.957Z,20.30
2017-07-19T04:00:51.060Z,20.30
2017-07-19T04:03:18.369Z,20.40
2017-07-19T04:05:45.086Z,20.30
2017-07-19T04:08:12.881Z,20.40
2017-07-19T04:10:40.020Z,20.50
2017-07-19T04:13:06.593Z,20.10
2017-07-19T04:15:35.346Z,19.90
2017-07-19T04:18:02.261Z,20.00
2017-07-19T04:20:39.872Z,20.10
2017-07-19T04:23:06.351Z,20.30
2017-07-19T04:25:32.649Z,20.40
2017-07-19T04:27:59.839Z,20.30
2017-07-19T04:30:26.235Z,20.20
2017-07-19T04:32:52.940Z,20.20
2017-07-19T04:35:19.735Z,20.30
2017-07-19T04:37:45.943Z,20.20
2017-07-19T04:40:13.464Z,20.30
2017-07-19T04:42:39.711Z,20.30
2017-07-19T04:45:26.081Z,20.50
2017-07-19T04:51:01.813Z,20.50
2017-07-19T04:53:28.817Z,20.70
2017-07-19T04:55:55.123Z,20.80
2017-07-19T04:58:21.723Z,20.80
2017-07-19T05:00:49.420Z,20.90
2017-07-19T05:03:31.316Z,20.90
2017-07-19T05:05:57.769Z,20.90
2017-07-19T05:08:24.034Z,20.90
2017-07-19T05:10:51.456Z,20.90
2017-07-19T05:13:19.057Z,20.90
2017-07-19T05:16:11.384Z,21.00
2017-07-19T05:21:30.359Z,21.10
2017-07-19T05:23:56.627Z,21.10
2017-07-19T05:29:18.870Z,21.00
2017-07-19T05:31:45.129Z,21.00
2017-07-19T05:34:12.865Z,21.10
2017-07-19T05:36:39.324Z,21.30
2017-07-19T05:39:13.882Z,21.40
2017-07-19T05:41:46.735Z,21.50
2017-07-19T05:50:00.173Z,21.60
2017-07-19T05:52:26.370Z,21.70
2017-07-19T05:54:52.997Z,21.80
2017-07-19T05:59:59.616Z,21.90
2017-07-19T06:02:25.787Z,22.00
2017-07-19T06:04:52.085Z,22.10
2017-07-19T06:07:28.343Z,22.00
2017-07-19T06:09:54.524Z,22.00
2017-07-19T06:12:20.884Z,22.10
2017-07-19T06:14:47.112Z,22.10
2017-07-19T06:17:13.316Z,22.10
2017-07-19T06:19:39.475Z,22.20
2017-07-19T06:22:06.737Z,22.30
2017-07-19T06:24:33.033Z,22.40
2017-07-19T06:26:59.247Z,22.50
2017-07-19T06:29:26.686Z,22.60
2017-07-19T06:31:53.842Z,22.60
2017-07-19T06:34:20.317Z,22.70
2017-07-19T06:36:47.100Z,22.70
2017-07-19T06:39:13.371Z,22.80
2017-07-19T06:41:42.158Z,22.90
2017-07-19T06:44:08.829Z,22.90
2017-07-19T06:46:35.344Z,22.90
2017-07-19T06:49:01.713Z,23.00
2017-07-19T06:51:27.894Z,23.10
2017-07-19T06:53:54.127Z,23.10
2017-07-19T06:56:20.456Z,23.20
2017-07-19T06:58:46.860Z,23.20
2017-07-19T07:01:13.128Z,23.30
2017-07-19T07:03:41.255Z,23.40
2017-07-19T07:06:07.998Z,23.40
2017-07-19T07:08:34.423Z,23.50
2017-07-19T07:11:00.901Z,23.60
2017-07-19T07:13:27.228Z,23.70
2017-07-19T07:15:54.159Z,23.70
2017-07-19T07:18:20.851Z,23.80
2017-07-19T07:20:47.764Z,23.90
2017-07-19T07:23:14.092Z,23.90
2017-07-19T07:25:41.359Z,24.00
2017-07-19T07:28:07.740Z,24.00
2017-07-19T07:30:34.234Z,24.10
2017-07-19T07:33:00.792Z,24.10
2017-07-19T07:35:27.046Z,24.20
2017-07-19T07:37:53.306Z,24.20
2017-07-19T07:40:19.604Z,24.40
2017-07-19T07:42:45.996Z,24.40
2017-07-19T07:45:12.184Z,24.40
2017-07-19T07:47:38.444Z,24.50
2017-07-19T07:50:04.821Z,24.50
2017-07-19T07:52:35.400Z,24.60
2017-07-19T07:55:02.968Z,24.60
2017-07-19T08:00:22.326Z,24.70
2017-07-19T08:02:49.042Z,24.80
2017-07-19T08:05:15.454Z,24.90
2017-07-19T08:07:41.968Z,24.90
2017-07-19T08:10:08.252Z,25.10
2017-07-19T08:12:34.639Z,25.10
2017-07-19T08:15:00.932Z,25.20
2017-07-19T08:17:28.185Z,25.20
2017-07-19T08:19:54.397Z,25.30
2017-07-19T08:22:20.741Z,25.30
2017-07-19T08:24:48.023Z,25.40
2017-07-19T08:27:14.493Z,25.40
2017-07-19T08:29:40.853Z,25.50
2017-07-19T08:32:07.817Z,25.50
2017-07-19T08:34:34.359Z,25.60
2017-07-19T08:37:01.183Z,25.50
2017-07-19T08:39:27.576Z,25.60
2017-07-19T08:41:53.947Z,25.70
2017-07-19T08:44:20.504Z,25.80
2017-07-19T08:46:46.898Z,25.90
2017-07-19T08:49:13.440Z,26.00
2017-07-19T08:51:42.751Z,25.90
2017-07-19T08:54:10.660Z,25.90
2017-07-19T08:56:39.776Z,26.00
2017-07-19T08:59:06.159Z,26.10
2017-07-19T09:01:32.958Z,26.10
2017-07-19T09:03:59.253Z,26.20
2017-07-19T09:06:25.508Z,26.30
2017-07-19T09:08:51.844Z,26.50
2017-07-19T09:11:18.304Z,26.60
2017-07-19T09:13:44.746Z,26.70
2017-07-19T09:16:10.977Z,26.60
2017-07-19T09:18:37.289Z,26.60
2017-07-19T09:21:04.006Z,26.60
2017-07-19T09:23:31.777Z,26.70
2017-07-19T09:25:58.137Z,26.80
2017-07-19T09:28:24.434Z,26.90
2017-07-19T09:30:50.659Z,26.90
2017-07-19T09:33:16.997Z,27.00
2017-07-19T09:35:43.403Z,27.10
2017-07-19T09:38:11.533Z,27.10
2017-07-19T09:40:38.801Z,27.10
2017-07-19T09:43:05.137Z,27.10
2017-07-19T09:45:31.536Z,27.30
2017-07-19T09:47:57.940Z,27.30
2017-07-19T09:50:30.628Z,27.40
2017-07-19T09:52:57.055Z,27.40
2017-07-19T09:55:23.393Z,27.50
2017-07-19T09:57:49.604Z,27.60
2017-07-19T10:00:15.917Z,27.60
2017-07-19T10:02:42.343Z,27.80
2017-07-19T10:05:08.622Z,27.90
2017-07-19T10:07:34.896Z,28.00
2017-07-19T10:10:01.080Z,28.00
2017-07-19T10:12:27.618Z,28.10
2017-07-19T10:14:53.878Z,28.10
2017-07-19T10:17:20.212Z,28.20
2017-07-19T10:19:46.473Z,28.40
2017-07-19T10:22:12.765Z,28.60
2017-07-19T10:24:40.151Z,28.70
2017-07-19T10:27:09.041Z,28.70
2017-07-19T10:29:35.388Z,28.80
2017-07-19T10:32:01.816Z,28.90
2017-07-19T10:34:28.203Z,29.10
2017-07-19T10:36:54.544Z,29.10
2017-07-19T10:39:20.889Z,29.20
2017-07-19T10:41:47.628Z,29.20
2017-07-19T10:44:13.992Z,29.30
2017-07-19T10:46:40.164Z,29.40
2017-07-19T10:49:06.515Z,29.60
2017-07-19T10:51:32.827Z,29.70
2017-07-19T10:53:59.722Z,29.80
2017-07-19T10:56:26.616Z,29.90
2017-07-19T10:58:52.871Z,30.00
2017-07-19T11:01:19.167Z,30.10
2017-07-19T11:03:45.841Z,30.20
2017-07-19T11:06:12.197Z,30.20
2017-07-19T11:08:38.505Z,30.30
2017-07-19T11:11:04.798Z,30.40
2017-07-19T11:13:32.346Z,30.50
2017-07-19T11:15:58.589Z,30.60
2017-07-19T11:18:24.751Z,30.60
2017-07-19T11:20:50.956Z,30.70
2017-07-19T11:23:17.141Z,30.90
2017-07-19T11:25:43.456Z,30.90
2017-07-19T11:28:09.695Z,31.00
2017-07-19T11:30:36.244Z,31.10
2017-07-19T11:33:02.527Z,31.20
2017-07-19T11:35:28.900Z,31.30
2017-07-19T11:37:55.266Z,31.40
2017-07-19T11:40:22.911Z,31.50
2017-07-19T11:42:49.589Z,31.70
2017-07-19T11:45:15.905Z,31.80
2017-07-19T11:47:42.083Z,32.00
2017-07-19T11:50:08.228Z,32.20
2017-07-19T11:52:35.010Z,32.30
2017-07-19T11:55:01.379Z,32.40
2017-07-19T11:57:37.746Z,32.50
2017-07-19T12:00:04.055Z,32.60
2017-07-19T12:02:30.345Z,32.80
2017-07-19T12:04:56.520Z,33.20
2017-07-19T12:07:24.599Z,33.50
2017-07-19T12:09:50.816Z,33.80
2017-07-19T12:12:17.027Z,34.10
2017-07-19T12:14:43.220Z,34.50
2017-07-19T12:17:09.380Z,35.20
2017-07-19T12:19:35.560Z,35.70
2017-07-19T12:22:01.700Z,36.30
2017-07-19T12:24:28.062Z,36.50
2017-07-19T12:26:54.270Z,37.00
2017-07-19T12:29:20.449Z,37.40
2017-07-19T12:31:46.695Z,37.80
2017-07-19T12:34:12.887Z,38.30
2017-07-19T12:36:39.190Z,38.50
2017-07-19T12:39:05.467Z,38.90
2017-07-19T12:41:31.802Z,39.20
2017-07-19T12:43:57.983Z,39.40
2017-07-19T12:46:24.168Z,39.60
2017-07-19T12:48:50.533Z,39.90
2017-07-19T12:51:16.763Z,40.30
2017-07-19T12:53:42.994Z,40.40
2017-07-19T12:56:09.227Z,40.50
2017-07-19T12:58:35.952Z,40.50
2017-07-19T13:01:03.324Z,40.70
2017-07-19T13:03:29.623Z,40.80
2017-07-19T13:05:56.887Z,41.30
2017-07-19T13:08:23.260Z,41.10
2017-07-19T13:10:49.522Z,41.20
2017-07-19T13:13:15.867Z,41.60
2017-07-19T13:15:42.120Z,41.70
2017-07-19T13:18:08.360Z,41.60
2017-07-19T13:20:34.680Z,41.50
2017-07-19T13:23:00.858Z,41.50
2017-07-19T13:25:27.134Z,41.60
2017-07-19T13:27:53.331Z,41.80
2017-07-19T13:30:19.499Z,41.70
2017-07-19T13:32:45.707Z,41.00
2017-07-19T13:35:12.063Z,41.00
2017-07-19T13:37:38.381Z,41.10
2017-07-19T13:40:04.574Z,41.00
2017-07-19T13:42:30.950Z,41.30
2017-07-19T13:44:58.200Z,41.40
2017-07-19T13:47:24.529Z,41.30
2017-07-19T13:49:50.715Z,41.50
2017-07-19T13:52:16.915Z,41.20
2017-07-19T13:54:43.096Z,41.00
2017-07-19T13:57:10.486Z,40.70
2017-07-19T13:59:36.647Z,40.30
2017-07-19T14:02:03.027Z,40.00
2017-07-19T14:04:29.343Z,39.50
2017-07-19T14:06:55.601Z,39.20
2017-07-19T14:09:21.913Z,39.00
2017-07-19T14:11:48.071Z,38.40
2017-07-19T14:14:14.263Z,37.40
2017-07-19T14:16:40.523Z,37.50
2017-07-19T14:19:06.860Z,37.30
2017-07-19T14:21:34.065Z,37.00
2017-07-19T14:24:00.468Z,36.80
2017-07-19T14:26:26.690Z,36.50
2017-07-19T14:28:52.860Z,36.20
2017-07-19T14:31:19.329Z,36.10
2017-07-19T14:33:45.836Z,35.70
2017-07-19T14:36:12.345Z,35.60
2017-07-19T14:38:38.661Z,35.40
2017-07-19T14:41:11.715Z,35.30
2017-07-19T14:46:41.279Z,35.00
2017-07-19T14:49:16.772Z,35.00
2017-07-19T14:51:43.374Z,34.80
2017-07-19T14:54:11.564Z,34.70
2017-07-19T14:59:48.803Z,34.50
2017-07-19T15:02:15.209Z,34.40
2017-07-19T15:04:42.517Z,34.40
2017-07-19T15:07:18.798Z,34.20
2017-07-19T15:09:45.246Z,34.10
2017-07-19T15:12:11.772Z,34.10
2017-07-19T15:14:38.147Z,33.90
2017-07-19T15:17:05.755Z,33.90
2017-07-19T15:22:27.434Z,33.80
2017-07-19T15:24:53.856Z,33.70
2017-07-19T15:27:22.751Z,33.50
2017-07-19T15:30:09.594Z,33.50
2017-07-19T15:32:42.108Z,33.40
2017-07-19T15:35:11.440Z,33.30
2017-07-19T15:37:45.690Z,33.20
2017-07-19T15:40:13.965Z,33.10
2017-07-19T15:42:40.993Z,33.00
2017-07-19T15:45:15.099Z,32.90
2017-07-19T15:47:42.968Z,32.80
2017-07-19T15:50:29.169Z,32.80
2017-07-19T15:52:55.742Z,32.70
2017-07-19T15:55:24.036Z,32.60
2017-07-19T16:09:40.125Z,32.00
2017-07-19T16:12:06.584Z,31.80
2017-07-19T16:14:42.185Z,31.70
2017-07-19T16:17:12.574Z,31.70
2017-07-19T16:19:59.536Z,31.50
2017-07-19T16:22:48.486Z,31.40
2017-07-19T16:25:16.996Z,31.40
2017-07-19T16:27:43.496Z,31.30
2017-07-19T16:30:09.829Z,31.10
2017-07-19T16:32:36.293Z,31.00
2017-07-19T16:35:02.531Z,30.90
2017-07-19T16:37:28.879Z,30.70
2017-07-19T16:39:55.269Z,30.70
2017-07-19T16:42:21.641Z,30.60
2017-07-19T16:44:47.915Z,30.60
2017-07-19T16:47:14.228Z,30.50
2017-07-19T16:49:41.004Z,30.50
2017-07-19T16:52:07.323Z,30.50
2017-07-19T16:54:33.629Z,30.50
2017-07-19T16:57:00.415Z,30.50
2017-07-19T16:59:26.711Z,30.40
2017-07-19T17:01:52.944Z,30.30
2017-07-19T17:04:20.137Z,30.10
2017-07-19T17:06:46.399Z,30.00
2017-07-19T17:09:12.747Z,29.90
2017-07-19T17:12:01.016Z,29.80
2017-07-19T17:14:27.308Z,29.70
2017-07-19T17:16:53.495Z,29.60
2017-07-19T17:19:20.180Z,29.50
2017-07-19T17:21:46.594Z,29.50
2017-07-19T17:24:12.943Z,29.50
2017-07-19T17:26:40.799Z,29.50
2017-07-19T17:29:07.331Z,29.60
2017-07-19T17:31:35.043Z,29.50
2017-07-19T17:34:07.614Z,29.50
2017-07-19T17:36:34.812Z,29.40
2017-07-19T17:39:01.317Z,29.40
2017-07-19T17:41:27.987Z,29.20
2017-07-19T17:43:54.377Z,29.10
2017-07-19T17:46:20.763Z,29.10
2017-07-19T17:48:48.033Z,29.10
2017-07-19T17:51:15.094Z,29.10
2017-07-19T17:53:41.684Z,29.00
2017-07-19T17:58:50.341Z,28.90
2017-07-19T18:01:16.601Z,29.00
2017-07-19T18:03:50.544Z,29.10
2017-07-19T18:06:16.855Z,29.10
2017-07-19T18:08:43.150Z,29.00
2017-07-19T18:11:09.516Z,29.00
2017-07-19T18:13:35.741Z,29.10
2017-07-19T18:16:02.072Z,29.00
2017-07-19T18:18:28.293Z,29.00
2017-07-19T18:20:56.125Z,28.80
2017-07-19T18:23:22.356Z,28.60
2017-07-19T18:25:48.647Z,28.20
2017-07-19T18:28:14.860Z,27.90
2017-07-19T18:30:44.172Z,27.90
2017-07-19T18:33:10.745Z,27.80
2017-07-19T18:35:40.659Z,27.80
2017-07-19T18:38:06.983Z,27.80
2017-07-19T18:40:34.135Z,27.60
2017-07-19T18:43:00.537Z,27.20
2017-07-19T18:45:27.063Z,27.20
2017-07-19T18:47:53.356Z,27.20
2017-07-19T18:50:23.949Z,27.10
2017-07-19T18:52:50.258Z,26.90
2017-07-19T18:55:16.555Z,26.90
2017-07-19T18:57:43.504Z,26.80
2017-07-19T19:00:09.812Z,26.70
2017-07-19T19:02:36.241Z,26.50
2017-07-19T19:05:02.815Z,26.40
2017-07-19T19:07:29.124Z,26.50
2017-07-19T19:09:56.749Z,26.50
2017-07-19T19:12:23.064Z,26.50
2017-07-19T19:14:49.824Z,26.40
2017-07-19T19:20:08.927Z,26.10
2017-07-19T19:22:35.144Z,25.90
2017-07-19T19:25:01.346Z,25.90
2017-07-19T19:27:27.527Z,25.80
2017-07-19T19:29:54.680Z,25.80
2017-07-19T19:32:20.859Z,25.90
2017-07-19T19:34:47.006Z,25.90
2017-07-19T19:37:13.322Z,25.80
2017-07-19T19:39:39.481Z,25.80
2017-07-19T19:42:05.670Z,25.40
2017-07-19T19:44:31.862Z,25.30
2017-07-19T19:46:58.058Z,25.20
2017-07-19T19:49:24.259Z,25.20
2017-07-19T19:51:50.523Z,25.20
2017-07-19T19:54:16.713Z,25.00
2017-07-19T19:56:42.932Z,24.70
2017-07-19T19:59:09.084Z,24.50
2017-07-19T20:01:35.290Z,24.60
2017-07-19T20:04:01.480Z,24.80
2017-07-19T20:06:27.635Z,24.80
2017-07-19T20:08:55.062Z,24.90
2017-07-19T20:11:23.531Z,24.90
2017-07-19T20:13:49.892Z,24.90
2017-07-19T20:16:16.076Z,24.90
2017-07-19T20:18:42.304Z,24.80
2017-07-19T20:21:08.491Z,24.50
2017-07-19T20:23:34.694Z,24.20
2017-07-19T20:26:00.876Z,23.90
2017-07-19T20:28:27.040Z,23.70
2017-07-19T20:30:53.175Z,23.70
2017-07-19T20:33:19.398Z,23.60
2017-07-19T20:35:45.600Z,23.70
2017-07-19T20:38:11.767Z,23.80
2017-07-19T20:40:37.972Z,23.60
2017-07-19T20:43:04.427Z,23.60
2017-07-19T20:45:30.605Z,23.50
2017-07-19T20:47:56.779Z,23.60
2017-07-19T20:50:22.967Z,23.50
2017-07-19T20:52:49.160Z,23.40
2017-07-19T20:55:15.389Z,23.30
2017-07-19T20:57:41.566Z,23.00
2017-07-19T21:00:07.851Z,22.90
2017-07-19T21:02:34.002Z,23.10
2017-07-19T21:05:00.132Z,23.40
2017-07-19T21:07:26.328Z,23.50
2017-07-19T21:09:52.493Z,23.60
2017-07-19T21:12:18.778Z,23.60
2017-07-19T21:14:44.933Z,23.20
2017-07-19T21:17:11.109Z,23.10
2017-07-19T21:19:37.297Z,23.20
2017-07-19T21:22:03.512Z,23.30
2017-07-19T21:24:29.672Z,23.20
2017-07-19T21:26:55.927Z,22.80
2017-07-19T21:29:22.141Z,22.60
2017-07-19T21:31:48.294Z,22.70
2017-07-19T21:34:14.435Z,22.90
2017-07-19T21:36:40.615Z,22.80
2017-07-19T21:39:06.763Z,22.90
2017-07-19T21:41:32.971Z,22.80
2017-07-19T21:43:59.107Z,22.80
2017-07-19T21:46:25.274Z,22.80
2017-07-19T21:48:51.463Z,22.90
2017-07-19T21:51:17.634Z,23.00
2017-07-19T21:53:43.790Z,23.10
2017-07-19T21:56:09.927Z,23.20
2017-07-19T21:58:36.091Z,23.00
2017-07-19T22:01:02.265Z,23.00
2017-07-19T22:03:28.452Z,23.10
2017-07-19T22:05:54.622Z,23.00
2017-07-19T22:08:20.792Z,23.00
2017-07-19T22:10:46.919Z,23.00
2017-07-19T22:13:13.098Z,23.00
2017-07-19T22:15:39.258Z,23.00
2017-07-19T22:18:05.425Z,23.00
2017-07-19T22:20:31.558Z,22.90
2017-07-19T22:22:57.727Z,22.70
2017-07-19T22:25:23.886Z,22.70
2017-07-19T22:27:50.056Z,22.80
2017-07-19T22:30:16.212Z,22.60
2017-07-19T22:32:42.366Z,22.30
2017-07-19T22:35:08.548Z,22.30
2017-07-19T22:37:34.759Z,22.50
2017-07-19T22:40:01.572Z,22.70
2017-07-19T22:42:27.919Z,22.50
2017-07-19T22:44:55.760Z,22.50
2017-07-19T22:47:21.977Z,22.30
2017-07-19T22:49:51.777Z,21.90
2017-07-19T22:52:18.085Z,21.70
2017-07-19T22:54:44.335Z,21.90
2017-07-19T22:57:10.754Z,22.00
2017-07-19T22:59:41.251Z,22.30
2017-07-19T23:02:07.619Z,22.20
2017-07-19T23:04:33.975Z,22.30
2017-07-19T23:07:00.685Z,22.40
2017-07-19T23:09:26.981Z,22.50
2017-07-19T23:11:53.267Z,22.50
2017-07-19T23:14:19.905Z,22.60
2017-07-19T23:16:47.571Z,22.60
2017-07-19T23:19:13.882Z,22.70
2017-07-19T23:21:40.125Z,22.70
2017-07-19T23:26:59.369Z,22.60
2017-07-19T23:29:31.147Z,22.50
2017-07-19T23:31:59.214Z,22.60
2017-07-19T23:34:26.084Z,22.60
2017-07-19T23:36:52.633Z,22.40
2017-07-19T23:39:18.998Z,22.50
2017-07-19T23:41:45.282Z,22.50
2017-07-19T23:44:11.501Z,22.20
2017-07-19T23:46:37.914Z,22.00
2017-07-19T23:49:06.381Z,22.20
2017-07-19T23:51:33.292Z,22.30
2017-07-19T23:53:59.691Z,22.40
2017-07-19T23:56:27.029Z,22.30
2017-07-19T23:58:53.416Z,22.30
